Time;durP1;ratioP1;P1;durP2;ratioP2;P2;SDS_P1;SDS_P2;PMS_P1;PMS_P2;Temp;Humidity;BMP_temperature;BMP_pressure;BME280_temperature;BME280_humidity;BME280_pressure;Samples;Min_cycle;Max_cycle;Signal;HPM_P1;HPM_P2
2021/06/24 00:00:32;;;;;;;;;;;14.50;99.90;;;;;;8359771;28;19999;-64
2021/06/24 00:04:32;;;;;;;;;;;14.50;99.90;;;;;;8361260;28;20337;-64
2021/06/24 00:08:33;;;;;;;;;;;14.40;99.90;;;;;;8360563;28;20446;-64
2021/06/24 00:12:34;;;;;;;;;;;14.40;99.90;;;;;;8359758;28;20340;-64
2021/06/24 00:16:34;;;;;;;;;;;14.10;99.90;;;;;;8360452;28;19904;-64
2021/06/24 00:20:35;;;;;;;;;;;14.10;99.90;;;;;;8360447;28;19911;-64
2021/06/24 00:24:36;;;;;;;;;;;14.10;99.90;;;;;;8360113;28;19904;-64
2021/06/24 00:28:36;;;;;;;;;;;14.20;99.90;;;;;;8359791;28;19983;-64
2021/06/24 00:32:37;;;;;;;;;;;14.20;99.90;;;;;;8359035;28;19924;-64
2021/06/24 00:36:38;;;;;;;;;;;14.40;99.90;;;;;;8359929;28;19912;-64
2021/06/24 00:40:39;;;;;;;;;;;14.30;99.90;;;;;;8359587;28;20000;-62
2021/06/24 00:44:40;;;;;;;;;;;14.10;99.90;;;;;;8359364;28;20397;-62
2021/06/24 00:48:40;;;;;;;;;;;13.90;99.90;;;;;;8359398;28;19915;-62
2021/06/24 00:52:41;;;;;;;;;;;13.80;99.90;;;;;;8358976;28;19911;-62
2021/06/24 00:56:41;;;;;;;;;;;13.80;99.90;;;;;;8359461;28;19912;-62
2021/06/24 01:00:43;;;;;;;;;;;13.70;99.90;;;;;;8359488;28;19904;-62
2021/06/24 01:04:43;;;;;;;;;;;14.00;99.90;;;;;;8357683;28;20101;-62
2021/06/24 01:08:44;;;;;;;;;;;14.10;99.90;;;;;;8358750;28;20034;-62
2021/06/24 01:12:44;;;;;;;;;;;13.90;99.90;;;;;;8359199;28;19943;-62
2021/06/24 01:16:45;;;;;;;;;;;13.80;99.90;;;;;;8357368;28;19908;-62
2021/06/24 01:20:45;;;;;;;;;;;13.80;99.90;;;;;;8358713;28;20252;-62
2021/06/24 01:24:46;;;;;;;;;;;13.90;99.90;;;;;;8358577;28;20457;-62
2021/06/24 01:28:46;;;;;;;4.27;3.53;;;14.00;99.90;;;;;;8356422;28;20367;-62
2021/06/24 01:32:47;;;;;;;9.38;6.13;;;14.10;99.90;;;;;;8358195;28;20032;-62
2021/06/24 01:36:48;;;;;;;4.82;4.00;;;14.00;99.90;;;;;;8357240;28;20025;-62
2021/06/24 01:40:48;;;;;;;4.50;4.05;;;14.00;99.90;;;;;;8357683;28;20028;-62
2021/06/24 01:44:49;;;;;;;4.82;3.63;;;13.80;99.90;;;;;;8356363;28;20508;-62
2021/06/24 01:48:49;;;;;;;4.97;4.03;;;13.70;99.90;;;;;;8357281;28;20021;-62
2021/06/24 01:52:50;;;;;;;4.20;3.78;;;13.90;99.90;;;;;;8356770;28;20110;-62
2021/06/24 01:56:51;;;;;;;4.25;3.83;;;13.80;99.90;;;;;;8357721;28;20021;-62
2021/06/24 02:00:53;;;;;;;4.70;4.20;;;13.50;99.90;;;;;;8357590;28;20025;-62
2021/06/24 02:04:54;;;;;;;168.40;151.80;;;13.40;99.90;;;;;;8361369;28;20565;-62
2021/06/24 02:08:54;;;;;;;7.53;6.30;;;13.20;99.90;;;;;;8363176;28;20026;-62
2021/06/24 02:12:56;;;;;;;9.70;5.93;;;13.30;99.90;;;;;;8364330;28;20028;-62
2021/06/24 02:16:56;;;;;;;11.60;7.43;;;13.40;99.90;;;;;;8364081;28;20626;-62
2021/06/24 02:20:57;;;;;;;12.75;8.70;;;13.20;99.90;;;;;;8363330;28;20031;-62
2021/06/24 02:24:58;;;;;;;13.60;9.00;;;13.40;99.90;;;;;;8363311;28;20056;-62
2021/06/24 02:28:59;;;;;;;12.68;8.70;;;13.30;99.90;;;;;;8361788;28;20028;-62
2021/06/24 02:32:59;;;;;;;18.15;11.07;;;13.20;99.90;;;;;;8363762;28;20033;-62
2021/06/24 02:37:01;;;;;;;14.95;10.50;;;13.00;99.90;;;;;;8363895;28;20144;-62
2021/06/24 02:41:02;;;;;;;13.35;10.20;;;13.00;99.90;;;;;;8363335;28;20021;-62
2021/06/24 02:45:05;;;;;;;16.60;11.05;;;13.20;99.90;;;;;;8363068;28;20029;-62
2021/06/24 02:49:06;;;;;;;18.83;12.02;;;13.20;99.90;;;;;;8363108;28;20051;-62
2021/06/24 02:53:07;;;;;;;10.25;7.68;;;13.00;99.90;;;;;;8362934;28;20029;-62
2021/06/24 02:57:08;;;;;;;12.48;8.60;;;13.30;99.90;;;;;;8361688;28;20021;-62
2021/06/24 03:01:08;;;;;;;13.85;7.38;;;13.00;99.90;;;;;;8361750;28;20183;-62
2021/06/24 03:05:10;;;;;;;12.57;8.95;;;12.90;99.90;;;;;;8362389;28;20095;-62
2021/06/24 03:09:10;;;;;;;13.95;9.48;;;12.70;99.90;;;;;;8362283;28;20061;-62
2021/06/24 03:13:11;;;;;;;23.85;7.55;;;12.80;99.90;;;;;;8362609;28;20024;-62
2021/06/24 03:17:12;;;;;;;55.35;6.60;;;12.80;99.90;;;;;;8360714;28;20479;-62
2021/06/24 03:21:12;;;;;;;200.15;9.23;;;12.70;99.90;;;;;;8362329;28;20063;-62
2021/06/24 03:25:15;;;;;;;72.15;6.88;;;12.70;99.90;;;;;;8361993;28;20112;-62
2021/06/24 03:29:16;;;;;;;401.48;11.20;;;12.60;99.90;;;;;;8360398;28;20074;-62
2021/06/24 03:33:16;;;;;;;231.95;9.93;;;12.60;99.90;;;;;;8361819;28;20028;-62
2021/06/24 03:37:17;;;;;;;78.10;8.45;;;12.50;99.90;;;;;;8360444;28;20060;-62
2021/06/24 03:41:24;;;;;;;18.70;6.80;;;12.60;99.90;;;;;;8361581;28;20488;-62
2021/06/24 03:45:25;;;;;;;18.35;6.13;;;12.70;99.90;;;;;;8361376;28;20104;-62
2021/06/24 03:49:25;;;;;;;42.15;7.60;;;13.00;99.90;;;;;;8361145;28;20029;-62
2021/06/24 03:53:26;;;;;;;15.93;7.07;;;12.90;99.90;;;;;;8361144;28;20021;-62
2021/06/24 03:57:27;;;;;;;14.13;7.93;;;13.10;99.90;;;;;;8360082;28;20036;-62
2021/06/24 04:01:29;;;;;;;13.60;7.75;;;13.20;99.90;;;;;;8360288;28;20029;-62
2021/06/24 04:05:32;;;;;;;10.82;7.38;;;13.40;99.90;;;;;;8359145;28;20506;-62
2021/06/24 04:09:32;;;;;;;12.20;8.70;;;13.30;99.90;;;;;;8367467;22;20045;-67
2021/06/24 04:13:33;;;;;;;9.65;7.38;;;13.40;99.90;;;;;;8326520;28;20554;-68
2021/06/24 04:17:33;;;;;;;15.15;9.35;;;13.60;99.90;;;;;;8326460;28;20040;-67
2021/06/24 04:21:34;;;;;;;66.13;8.63;;;13.70;99.90;;;;;;8326813;28;20044;-67
2021/06/24 04:25:35;;;;;;;47.15;8.70;;;13.90;99.90;;;;;;8324706;28;20057;-67
2021/06/24 04:29:35;;;;;;;27.45;8.80;;;14.00;99.90;;;;;;8325316;28;20057;-68
2021/06/24 04:33:36;;;;;;;109.75;10.15;;;14.00;99.90;;;;;;8305708;28;20037;-67
2021/06/24 04:37:37;;;;;;;57.55;10.05;;;14.30;99.90;;;;;;8326505;28;20037;-70
2021/06/24 04:41:38;;;;;;;33.85;9.68;;;14.30;99.90;;;;;;8325241;28;20486;-67
2021/06/24 04:45:38;;;;;;;157.13;10.30;;;14.40;99.90;;;;;;8326063;28;20036;-68
2021/06/24 04:49:39;;;;;;;37.55;9.65;;;14.60;99.90;;;;;;8324727;28;20040;-67
2021/06/24 04:53:39;;;;;;;28.63;8.90;;;14.60;99.90;;;;;;8324555;28;20032;-67
2021/06/24 04:57:41;;;;;;;32.25;8.43;;;14.70;99.90;;;;;;8325530;28;20037;-68
2021/06/24 05:01:41;;;;;;;25.02;7.80;;;14.70;99.90;;;;;;8317743;28;20047;-67
2021/06/24 05:05:43;;;;;;;17.98;6.20;;;14.80;99.90;;;;;;8318985;28;20029;-68
2021/06/24 05:09:45;;;;;;;103.75;8.02;;;14.90;99.90;;;;;;8302717;28;20317;-66
2021/06/24 05:13:45;;;;;;;29.80;7.32;;;14.80;99.90;;;;;;8315867;28;20032;-68
2021/06/24 05:17:46;;;;;;;13.65;7.47;;;14.80;99.90;;;;;;8323223;28;20029;-67
2021/06/24 05:21:46;;;;;;;12.55;7.90;;;14.80;99.90;;;;;;8325374;28;20033;-68
2021/06/24 05:25:47;;;;;;;7.82;7.03;;;14.80;99.90;;;;;;8322353;28;20642;-67
2021/06/24 05:29:48;;;;;;;8.35;7.05;;;15.00;99.90;;;;;;8323459;28;20442;-67
2021/06/24 05:33:49;;;;;;;12.57;7.80;;;15.00;99.90;;;;;;8323556;28;20048;-69
2021/06/24 05:37:49;;;;;;;11.02;8.02;;;15.00;99.90;;;;;;8324017;28;20056;-68
2021/06/24 05:41:50;;;;;;;9.32;7.95;;;15.00;99.90;;;;;;8323340;28;20071;-67
2021/06/24 05:45:51;;;;;;;8.00;7.05;;;15.30;99.90;;;;;;8323787;28;20527;-67
2021/06/24 05:49:52;;;;;;;8.80;7.38;;;15.60;99.90;;;;;;8324073;28;20032;-67
2021/06/24 05:53:52;;;;;;;8.60;7.53;;;15.80;99.90;;;;;;8324608;28;20511;-70
2021/06/24 05:57:53;;;;;;;8.98;6.93;;;15.60;99.90;;;;;;8318322;28;20091;-68
2021/06/24 06:01:53;;;;;;;8.20;6.93;;;15.80;99.90;;;;;;8322104;28;20083;-68
2021/06/24 06:05:54;;;;;;;7.32;6.55;;;16.20;99.90;;;;;;8321208;28;20435;-68
2021/06/24 06:09:55;;;;;;;7.35;5.80;;;16.50;99.90;;;;;;8308455;28;20030;-69
2021/06/24 06:13:55;;;;;;;7.60;6.80;;;17.00;99.90;;;;;;8320868;28;20029;-67
2021/06/24 06:17:56;;;;;;;8.00;6.93;;;17.40;99.90;;;;;;8324097;28;20025;-67
2021/06/24 06:21:56;;;;;;;6.97;6.15;;;17.60;99.90;;;;;;8324164;28;20026;-68
2021/06/24 06:25:57;;;;;;;6.57;5.97;;;18.00;99.90;;;;;;8322424;28;20443;-68
2021/06/24 06:29:57;;;;;;;6.18;5.57;;;18.50;99.90;;;;;;8323469;28;20166;-68
2021/06/24 06:33:58;;;;;;;7.90;5.70;;;18.40;99.90;;;;;;8307956;28;20135;-67
2021/06/24 06:37:59;;;;;;;5.70;5.20;;;18.20;99.90;;;;;;8322634;28;20034;-68
2021/06/24 06:42:00;;;;;;;5.80;5.22;;;18.00;99.90;;;;;;8322620;28;20058;-68
2021/06/24 06:46:00;;;;;;;6.20;4.75;;;18.60;99.90;;;;;;8307287;28;20099;-68
2021/06/24 06:50:01;;;;;;;5.78;5.25;;;18.80;99.90;;;;;;8307698;28;20053;-67
2021/06/24 06:54:01;;;;;;;6.30;5.70;;;18.60;99.90;;;;;;8325831;28;20224;-67
2021/06/24 06:58:02;;;;;;;6.60;5.95;;;18.90;99.90;;;;;;8327804;28;20037;-68
2021/06/24 07:02:03;;;;;;;5.20;4.70;;;19.10;99.90;;;;;;8328924;28;20025;-68
2021/06/24 07:06:03;;;;;;;4.85;4.45;;;19.80;99.90;;;;;;8329225;28;20029;-66
2021/06/24 07:10:05;;;;;;;4.68;4.28;;;19.80;99.90;;;;;;8307716;28;20061;-68
2021/06/24 07:14:05;;;;;;;4.95;4.45;;;20.20;99.90;;;;;;8305589;28;20033;-67
2021/06/24 07:18:06;;;;;;;4.45;4.05;;;20.20;99.90;;;;;;8325727;28;20037;-67
2021/06/24 07:22:07;;;;;;;4.45;3.30;;;20.10;99.90;;;;;;8329465;28;20029;-68
2021/06/24 07:26:08;;;;;;;4.43;3.75;;;19.90;99.90;;;;;;8328846;28;20025;-67
2021/06/24 07:30:08;;;;;;;4.10;3.70;;;19.60;99.90;;;;;;8328750;28;20280;-67
2021/06/24 07:34:09;;;;;;;4.13;3.72;;;19.50;99.90;;;;;;8328088;28;20443;-67
2021/06/24 07:38:10;;;;;;;4.63;4.22;;;19.00;99.90;;;;;;8326129;28;20156;-68
2021/06/24 07:42:10;;;;;;;4.07;3.50;;;18.60;99.90;;;;;;8327803;28;20021;-67
2021/06/24 07:46:11;;;;;;;4.00;3.60;;;18.40;99.90;;;;;;8327984;28;20032;-67
2021/06/24 07:50:12;;;;;;;4.63;3.70;;;18.40;99.90;;;;;;8329102;28;20105;-67
2021/06/24 07:54:14;;;;;;;5.03;3.88;;;18.70;99.90;;;;;;8327143;28;20600;-67
2021/06/24 07:58:15;;;;;;;4.43;4.03;;;19.40;99.90;;;;;;8326819;28;20033;-67
2021/06/24 08:02:16;;;;;;;134.43;124.80;;;20.10;99.90;;;;;;8326932;28;20495;-68
2021/06/24 08:06:17;;;;;;;4.93;4.22;;;20.30;99.90;;;;;;8327577;28;20021;-67
2021/06/24 08:10:19;;;;;;;6.57;4.00;;;20.00;99.90;;;;;;8327615;28;20458;-67
2021/06/24 08:14:21;;;;;;;4.60;4.20;;;19.80;99.90;;;;;;8327875;28;20021;-67
2021/06/24 08:18:22;;;;;;;5.15;4.75;;;19.90;99.90;;;;;;8327414;28;20022;-67
2021/06/24 08:22:24;;;;;;;4.68;4.28;;;19.90;99.90;;;;;;8327696;28;20399;-68
2021/06/24 08:26:24;;;;;;;4.55;4.20;;;19.70;99.90;;;;;;8327053;28;20487;-68
2021/06/24 08:30:25;;;;;;;4.28;3.92;;;20.10;99.90;;;;;;8327065;28;20082;-68
2021/06/24 08:34:25;;;;;;;4.65;4.25;;;20.60;99.90;;;;;;8327089;28;20025;-67
2021/06/24 08:38:26;;;;;;;4.28;3.90;;;21.00;99.90;;;;;;8325495;28;20051;-68
2021/06/24 08:42:27;;;;;;;3.90;3.60;;;21.10;99.90;;;;;;8325666;28;20040;-68
2021/06/24 08:46:28;;;;;;;227.45;203.85;;;21.50;99.90;;;;;;8326336;28;20055;-67
2021/06/24 08:50:28;;;;;;;3.58;3.28;;;21.80;99.90;;;;;;8326634;28;20067;-68
2021/06/24 08:54:29;;;;;;;3.28;2.97;;;22.10;99.90;;;;;;8326604;28;20472;-67
2021/06/24 08:58:29;;;;;;;3.30;3.00;;;22.30;99.90;;;;;;8324883;28;20175;-68
2021/06/24 09:02:46;;;;;;;3.20;3.00;;;22.00;99.90;;;;;;8326357;28;20040;-68
2021/06/24 09:06:47;;;;;;;2.53;2.33;;;21.90;99.90;;;;;;8326695;28;20496;-66
2021/06/24 09:11:07;;;;;;;3.05;2.08;;;21.80;99.90;;;;;;8325999;28;20514;-67
2021/06/24 09:15:08;;;;;;;2.38;2.17;;;21.50;99.90;;;;;;8326437;28;20492;-67
2021/06/24 09:19:27;;;;;;;2.20;2.00;;;21.30;99.90;;;;;;8324698;28;20053;-67
2021/06/24 09:23:27;;;;;;;2.40;2.20;;;21.20;99.90;;;;;;8326260;28;20052;-66
2021/06/24 09:27:30;;;;;;;1.88;1.77;;;21.70;99.90;;;;;;8325778;28;20021;-67
2021/06/24 09:31:34;;;;;;;1.55;1.45;;;22.50;99.90;;;;;;8324686;28;20021;-66
2021/06/24 09:35:35;;;;;;;2.15;1.00;;;22.90;99.90;;;;;;8325460;28;20026;-68
2021/06/24 09:39:39;;;;;;;1.15;0.90;;;23.40;99.90;;;;;;8323903;28;20057;-67
2021/06/24 09:43:41;;;;;;;2.03;1.77;;;23.70;99.90;;;;;;8325320;28;20049;-67
2021/06/24 09:47:42;;;;;;;1.88;1.63;;;23.80;99.90;;;;;;8324874;28;20021;-67
2021/06/24 09:51:50;;;;;;;1.63;1.52;;;23.60;99.90;;;;;;8323370;28;20671;-67
2021/06/24 09:55:52;;;;;;;1.70;1.20;;;23.70;99.90;;;;;;8324527;28;20030;-66
2021/06/24 09:59:54;;;;;;;1.42;1.33;;;24.00;99.90;;;;;;8323382;28;20040;-67
2021/06/24 10:03:59;;;;;;;1.58;1.40;;;23.90;99.90;;;;;;8323075;28;20037;-67
2021/06/24 10:08:00;;;;;;;2.38;1.80;;;24.00;99.90;;;;;;8324555;28;20488;-66
2021/06/24 10:12:01;;;;;;;1.60;1.50;;;24.20;99.90;;;;;;8353371;22;20049;-66
2021/06/24 10:16:01;;;;;;;1.50;1.40;;;24.40;99.90;;;;;;8356903;28;20071;-66
2021/06/24 10:20:02;;;;;;;1.85;1.70;;;24.70;99.90;;;;;;8356617;28;20048;-66
2021/06/24 10:24:10;;;;;;;1.50;1.10;;;24.40;99.90;;;;;;8341271;28;20026;-66
2021/06/24 10:28:12;;;;;;;3.40;1.20;;;24.00;99.90;;;;;;8329575;28;20191;-66
2021/06/24 10:32:28;;;;;;;3.58;1.40;;;23.70;99.90;;;;;;8330549;28;20021;-66
2021/06/24 10:36:31;;;;;;;1.45;1.00;;;23.50;99.90;;;;;;8331841;28;20075;-66
2021/06/24 10:40:38;;;;;;;1.02;0.88;;;23.50;99.90;;;;;;8363369;28;20406;-66
2021/06/24 10:44:51;;;;;;;2.10;1.02;;;24.00;99.90;;;;;;8364047;28;20364;-66
2021/06/24 10:48:52;;;;;;;1.67;1.05;;;24.60;99.90;;;;;;8363431;28;20024;-66
2021/06/24 10:52:58;;;;;;;3.67;1.60;;;24.40;99.90;;;;;;8356173;28;20108;-66
2021/06/24 10:56:59;;;;;;;3.83;1.50;;;24.60;99.90;;;;;;8347938;28;20032;-66
2021/06/24 11:01:00;;;;;;;1.30;1.20;;;25.10;99.90;;;;;;8336789;28;20083;-66
2021/06/24 11:05:16;;;;;;;1.30;1.20;;;25.00;99.90;;;;;;8332049;28;20507;-67
2021/06/24 11:09:18;;;;;;;1.00;0.90;;;25.20;99.90;;;;;;8337039;28;20136;-66
2021/06/24 11:13:37;;;;;;;1.30;0.90;;;25.50;99.90;;;;;;8333218;28;20071;-66
2021/06/24 11:17:46;;;;;;;1.45;0.90;;;25.00;99.90;;;;;;8329557;28;20026;-66
2021/06/24 11:21:51;;;;;;;1.60;1.08;;;24.60;99.90;;;;;;8326135;28;20087;-66
2021/06/24 11:26:09;;;;;;;1.08;0.98;;;24.70;99.90;;;;;;8324273;28;20037;-67
2021/06/24 11:30:11;;;;;;;1.58;1.20;;;24.70;99.90;;;;;;8326790;28;20039;-66
2021/06/24 11:34:33;;;;;;;1.40;1.02;;;24.50;99.90;;;;;;8327826;28;20045;-67
2021/06/24 11:38:46;;;;;;;1.45;1.10;;;25.60;99.90;;;;;;8331854;28;20021;-66
2021/06/24 11:42:48;;;;;;;4.32;1.20;;;25.90;99.90;;;;;;8361418;28;20082;-67
2021/06/24 11:46:54;;;;;;;2.00;0.90;;;27.30;99.90;;;;;;8360255;28;20057;-66
2021/06/24 12:04:20;;;;;;;1.85;1.20;;;26.80;99.90;;;;;;8333626;28;20028;-67
2021/06/24 12:08:25;;;;;;;1.30;1.20;;;26.20;99.90;;;;;;8352401;28;20064;-67
2021/06/24 12:12:28;;;;;;;2.05;1.20;;;26.00;99.90;;;;;;8360670;28;20033;-66
2021/06/24 12:16:28;;;;;;;2.90;1.20;;;26.30;99.90;;;;;;8359209;28;20031;-67
2021/06/24 12:20:29;;;;;;;1.10;0.88;;;26.30;99.90;;;;;;8360158;28;20028;-67
2021/06/24 12:24:33;;;;;;;2.95;1.10;;;26.60;99.90;;;;;;8348158;28;20041;-67
2021/06/24 12:32:50;;;;;;;1.80;1.10;;;26.80;99.90;;;;;;8354870;28;20053;-64
2021/06/24 12:36:51;;;;;;;0.90;0.90;;;26.20;99.90;;;;;;8343151;28;20490;-62
2021/06/24 12:41:00;;;;;;;0.77;0.55;;;27.10;99.90;;;;;;8345435;28;20048;-62
2021/06/24 12:45:01;;;;;;;1.83;0.70;;;28.30;99.30;;;;;;8341974;28;20029;-62
2021/06/24 12:49:13;;;;;;;1.60;0.90;;;28.30;96.80;;;;;;8340916;28;20441;-62
2021/06/24 12:53:15;;;;;;;1.23;0.70;;;28.30;95.30;;;;;;8370212;28;20016;-62
2021/06/24 12:57:23;;;;;;;1.02;0.68;;;28.30;94.40;;;;;;8392333;28;20074;-62
2021/06/24 13:01:24;;;;;;;1.10;0.88;;;27.50;94.10;;;;;;8392098;28;20398;-62
2021/06/24 13:05:26;;;;;;;1.77;0.75;;;30.10;92.20;;;;;;8392238;28;20024;-63
2021/06/24 13:09:40;;;;;;;1.30;0.60;;;33.10;80.90;;;;;;8391763;28;20474;-62
2021/06/24 13:13:41;;;;;;;0.50;0.50;;;32.60;65.20;;;;;;8392130;28;20089;-62
2021/06/24 13:17:41;;;;;;;0.52;0.50;;;32.70;60.70;;;;;;8391795;28;20489;-62
2021/06/24 13:21:56;;;;;;;1.13;0.50;;;34.00;60.70;;;;;;8391843;28;20386;-63
2021/06/24 13:26:12;;;;;;;2.30;0.50;;;36.20;55.60;;;;;;8391028;28;20029;-62
2021/06/24 13:30:17;;;;;;;0.77;0.70;;;37.90;47.60;;;;;;8390999;28;20123;-62
2021/06/24 13:34:18;;;;;;;0.70;0.70;;;38.50;44.60;;;;;;8358623;28;20106;-63
2021/06/24 13:38:19;;;;;;;1.15;0.88;;;38.70;48.50;;;;;;8358321;28;20036;-62
2021/06/24 13:42:21;;;;;;;0.50;0.50;;;38.50;43.90;;;;;;8358332;28;20308;-63
2021/06/24 13:46:21;;;;;;;0.65;0.60;;;36.90;46.90;;;;;;8361071;28;20025;-62
2021/06/24 13:50:22;;;;;;;1.25;0.70;;;34.30;51.60;;;;;;8374164;28;20021;-62
2021/06/24 13:54:25;;;;;;;0.70;0.70;;;32.10;57.00;;;;;;8377249;28;20017;-62
2021/06/24 13:58:28;;;;;;;0.70;0.70;;;31.20;57.50;;;;;;8357501;28;20382;-62
2021/06/24 14:02:30;;;;;;;0.80;0.80;;;31.20;59.40;;;;;;8373373;28;20040;-62
2021/06/24 14:06:40;;;;;;;2.15;1.38;;;31.10;61.40;;;;;;8379519;28;20104;-62
2021/06/24 14:10:42;;;;;;;1.30;1.00;;;29.50;62.50;;;;;;8381501;28;20035;-62
2021/06/24 14:14:42;;;;;;;1.10;1.00;;;27.70;70.60;;;;;;8377769;28;20092;-62
2021/06/24 14:18:45;;;;;;;1.80;1.05;;;27.10;75.10;;;;;;8378720;28;21213;-62
2021/06/24 14:22:46;;;;;;;2.10;1.00;;;27.10;74.60;;;;;;8375488;28;20024;-62
2021/06/24 14:26:46;;;;;;;0.98;0.88;;;26.70;76.50;;;;;;8377382;28;20024;-62
2021/06/24 14:30:47;;;;;;;1.33;1.00;;;25.80;83.20;;;;;;8377347;28;20029;-62
2021/06/24 14:34:47;;;;;;;1.60;1.00;;;25.60;88.20;;;;;;8358974;28;20025;-62
2021/06/24 14:38:48;;;;;;;2.22;1.40;;;25.30;88.80;;;;;;8362329;28;20323;-62
2021/06/24 14:42:49;;;;;;;1.52;1.33;;;25.40;90.60;;;;;;8365291;28;20033;-62
2021/06/24 14:46:49;;;;;;;2.28;1.30;;;25.90;90.30;;;;;;8378573;28;20184;-62
2021/06/24 14:50:51;;;;;;;1.27;1.08;;;27.00;91.00;;;;;;8362516;28;20025;-62
2021/06/24 14:54:51;;;;;;;2.67;1.40;;;26.80;90.90;;;;;;8391213;28;20021;-63
2021/06/24 14:58:52;;;;;;;1.10;0.93;;;26.90;91.10;;;;;;8389662;28;20563;-63
2021/06/24 15:02:52;;;;;;;3.38;1.10;;;27.10;91.90;;;;;;8376725;28;20033;-63
2021/06/24 15:06:53;;;;;;;2.08;1.00;;;27.10;91.80;;;;;;8360973;28;20033;-63
2021/06/24 15:10:53;;;;;;;3.15;1.20;;;27.20;90.30;;;;;;8380798;28;20489;-64
2021/06/24 15:14:54;;;;;;;1.67;1.10;;;27.10;91.10;;;;;;8373255;28;20033;-62
2021/06/24 15:18:55;;;;;;;1.08;1.02;;;26.90;92.80;;;;;;8367482;28;20056;-63
2021/06/24 15:22:56;;;;;;;1.55;1.30;;;26.50;92.70;;;;;;8382123;28;20228;-62
2021/06/24 15:26:56;;;;;;;2.05;1.30;;;26.30;93.50;;;;;;8370974;28;20040;-64
2021/06/24 15:30:59;;;;;;;3.40;1.25;;;26.60;94.30;;;;;;8380631;28;20495;-63
2021/06/24 15:35:00;;;;;;;1.48;1.20;;;27.10;92.50;;;;;;8372404;28;20028;-63
2021/06/24 15:39:01;;;;;;;1.45;1.10;;;28.50;90.30;;;;;;8360350;28;20031;-63
2021/06/24 15:43:03;;;;;;;3.20;1.00;;;29.90;84.40;;;;;;8358745;28;20036;-63
2021/06/24 15:47:04;;;;;;;1.10;0.90;;;31.40;81.40;;;;;;8365151;28;20456;-64
2021/06/24 15:51:05;;;;;;;1.02;0.98;;;33.40;71.60;;;;;;8393225;28;20078;-64
2021/06/24 15:55:05;;;;;;;1.85;0.85;;;34.50;65.90;;;;;;8388094;28;20068;-64
2021/06/24 15:59:06;;;;;;;1.40;0.90;;;34.80;63.00;;;;;;8377443;28;20020;-64
2021/06/24 16:03:07;;;;;;;2.38;0.77;;;35.10;58.80;;;;;;8390492;28;20036;-64
2021/06/24 16:07:08;;;;;;;1.25;1.00;;;35.10;58.80;;;;;;8382169;28;20371;-64
2021/06/24 16:11:08;;;;;;;1.10;0.90;;;35.50;56.50;;;;;;8359969;28;20037;-63
2021/06/24 16:15:10;;;;;;;2.22;0.70;;;33.40;60.10;;;;;;8376528;28;20036;-64
2021/06/24 16:19:10;;;;;;;0.80;0.80;;;34.50;58.70;;;;;;8377611;28;20577;-64
2021/06/24 16:23:11;;;;;;;1.70;0.70;;;35.10;56.10;;;;;;8371710;28;20029;-64
2021/06/24 16:27:12;;;;;;;1.33;0.73;;;36.10;54.30;;;;;;8377530;28;20366;-64
2021/06/24 16:31:13;;;;;;;0.93;0.68;;;36.80;51.80;;;;;;8376171;28;20048;-64
2021/06/24 16:35:14;;;;;;;1.15;0.73;;;35.70;51.20;;;;;;8386909;28;20028;-64
2021/06/24 16:39:14;;;;;;;0.70;0.70;;;33.40;56.40;;;;;;8381943;28;20433;-64
2021/06/24 16:43:15;;;;;;;1.55;0.50;;;35.20;54.30;;;;;;8388643;28;20547;-65
2021/06/24 16:47:16;;;;;;;0.85;0.60;;;36.10;49.10;;;;;;8387093;28;20063;-65
2021/06/24 16:51:16;;;;;;;0.57;0.50;;;36.30;49.80;;;;;;8387546;28;20096;-65
2021/06/24 16:55:17;;;;;;;1.52;0.63;;;36.10;48.90;;;;;;8391324;28;20035;-64
2021/06/24 16:59:17;;;;;;;2.75;0.73;;;35.90;49.30;;;;;;8380829;28;20021;-64
2021/06/24 17:03:18;;;;;;;1.20;0.60;;;35.80;47.90;;;;;;8363204;28;20044;-64
2021/06/24 17:07:20;;;;;;;1.38;0.65;;;34.90;50.40;;;;;;8384059;28;20032;-64
2021/06/24 17:11:20;;;;;;;1.13;0.65;;;32.50;53.60;;;;;;8358399;28;20021;-64
2021/06/24 17:15:21;;;;;;;2.70;0.80;;;30.40;58.90;;;;;;8382072;28;20024;-63
2021/06/24 17:19:22;;;;;;;2.67;0.75;;;28.20;65.20;;;;;;8388746;28;20029;-63
2021/06/24 17:23:23;;;;;;;0.90;0.77;;;26.50;71.70;;;;;;8385005;28;20121;-63
2021/06/24 17:27:24;;;;;;;1.88;0.85;;;25.20;77.20;;;;;;8362529;28;20031;-64
2021/06/24 17:31:25;;;;;;;0.82;0.73;;;24.20;82.90;;;;;;8376648;28;20024;-63
2021/06/24 17:35:25;;;;;;;1.23;1.00;;;23.60;88.30;;;;;;8369296;28;20031;-63
2021/06/24 17:39:26;;;;;;;0.80;0.73;;;23.30;90.70;;;;;;8371193;28;20082;-63
2021/06/24 17:43:27;;;;;;;1.40;0.90;;;23.00;92.90;;;;;;8354577;28;20060;-63
2021/06/24 17:47:27;;;;;;;1.08;0.98;;;22.80;94.20;;;;;;8373930;28;20017;-63
2021/06/24 17:51:29;;;;;;;1.40;1.00;;;22.50;95.80;;;;;;8389893;28;20020;-63
2021/06/24 17:55:38;;;;;;;2.85;1.33;;;22.20;98.10;;;;;;8372676;28;20035;-63
2021/06/24 17:59:38;;;;;;;1.10;1.00;;;22.00;99.90;;;;;;8390847;28;20029;-63
2021/06/24 18:03:40;;;;;;;1.23;0.90;;;21.60;99.90;;;;;;8383380;28;20501;-64
2021/06/24 18:07:41;;;;;;;1.30;0.90;;;21.40;99.90;;;;;;8355210;28;20094;-63
2021/06/24 18:11:42;;;;;;;1.35;1.10;;;21.30;99.90;;;;;;8373179;28;20025;-64
2021/06/24 18:15:43;;;;;;;1.25;1.10;;;21.30;99.90;;;;;;8374673;28;20029;-63
2021/06/24 18:19:45;;;;;;;1.45;1.10;;;21.20;99.90;;;;;;8356358;28;20029;-63
2021/06/24 18:23:46;;;;;;;2.22;1.10;;;21.20;99.90;;;;;;8377304;28;20021;-63
2021/06/24 18:27:47;;;;;;;1.42;1.20;;;21.00;99.90;;;;;;8373967;28;20038;-63
2021/06/24 18:31:47;;;;;;;3.95;2.92;;;20.80;99.90;;;;;;8372340;28;20029;-63
2021/06/24 18:35:48;;;;;;;1.50;1.10;;;20.60;99.90;;;;;;8367484;28;20096;-63
2021/06/24 18:39:50;;;;;;;1.80;1.17;;;20.60;99.90;;;;;;8366028;28;20025;-64
2021/06/24 18:43:51;;;;;;;1.52;1.30;;;20.40;99.90;;;;;;8365998;28;20029;-63
2021/06/24 18:47:52;;;;;;;2.03;1.42;;;20.50;99.90;;;;;;8378179;28;20032;-64
2021/06/24 18:51:53;;;;;;;1.75;1.45;;;20.30;99.90;;;;;;8378477;28;20493;-64
2021/06/24 18:55:53;;;;;;;1.40;1.25;;;20.20;99.90;;;;;;8381821;28;20025;-64
2021/06/24 18:59:55;;;;;;;3.08;1.60;;;20.10;99.90;;;;;;8391955;28;20672;-63
2021/06/24 19:03:55;;;;;;;1.10;1.00;;;19.60;99.90;;;;;;8366251;28;20120;-63
2021/06/24 19:07:56;;;;;;;3.72;1.00;;;19.20;99.90;;;;;;8361989;28;20032;-62
2021/06/24 19:11:56;;;;;;;1.63;1.30;;;18.80;99.90;;;;;;8344491;28;20025;-63
2021/06/24 19:15:57;;;;;;;2.22;1.35;;;18.50;99.90;;;;;;8362044;28;20100;-63
2021/06/24 19:19:57;;;;;;;1.50;1.30;;;18.20;99.90;;;;;;8362082;28;20040;-63
2021/06/24 19:23:59;;;;;;;2.03;1.00;;;18.10;99.90;;;;;;8378555;28;20082;-63
2021/06/24 19:28:00;;;;;;;1.40;1.30;;;18.00;99.90;;;;;;8394849;28;20494;-63
2021/06/24 19:32:01;;;;;;;2.20;1.38;;;17.90;99.90;;;;;;8394762;28;20319;-63
2021/06/24 19:36:01;;;;;;;1.20;1.10;;;17.90;99.90;;;;;;8393782;28;20490;-63
2021/06/24 19:40:06;;;;;;;1.17;1.08;;;17.80;99.90;;;;;;8394243;28;20103;-63
2021/06/24 19:44:07;;;;;;;1.40;1.20;;;17.70;99.90;;;;;;8388487;28;20039;-67
2021/06/24 19:48:07;;;;;;;1.25;1.00;;;17.60;99.90;;;;;;8387859;28;20029;-67
2021/06/24 19:52:09;;;;;;;3.60;1.13;;;17.40;99.90;;;;;;8389913;28;20024;-67
2021/06/24 19:56:10;;;;;;;1.80;1.48;;;17.20;99.90;;;;;;8368955;28;20032;-67
2021/06/24 20:00:12;;;;;;;5.13;3.50;;;17.00;99.90;;;;;;8378082;28;20044;-70
2021/06/24 20:04:13;;;;;;;1.00;0.95;;;16.90;99.90;;;;;;8375977;28;20021;-70
2021/06/24 20:08:13;;;;;;;1.95;1.60;;;16.90;99.90;;;;;;8372206;28;20453;-69
2021/06/24 20:12:15;;;;;;;2.58;1.50;;;16.70;99.90;;;;;;8363154;28;20016;-69
2021/06/24 20:16:16;;;;;;;1.33;1.20;;;16.70;99.90;;;;;;8376876;28;20025;-69
2021/06/24 20:20:20;;;;;;;1.40;1.30;;;16.60;99.90;;;;;;8375251;28;20059;-67
2021/06/24 20:24:20;;;;;;;2.38;1.52;;;16.50;99.90;;;;;;8363738;28;20017;-67
2021/06/24 20:28:23;;;;;;;1.65;1.42;;;16.50;99.90;;;;;;8376083;28;20474;-67
2021/06/24 20:32:23;;;;;;;4.32;1.58;;;16.30;99.90;;;;;;8375935;28;20031;-67
2021/06/24 20:36:24;;;;;;;1.40;1.13;;;16.30;99.90;;;;;;8355229;28;20021;-68
2021/06/24 20:40:25;;;;;;;2.70;1.60;;;16.30;99.90;;;;;;8379527;28;20094;-68
2021/06/24 20:44:26;;;;;;;2.75;1.92;;;16.20;99.90;;;;;;8377390;28;20024;-68
2021/06/24 20:48:26;;;;;;;3.15;1.70;;;16.20;99.90;;;;;;8374823;28;20028;-68
2021/06/24 20:52:27;;;;;;;5.68;2.00;;;16.20;99.90;;;;;;8363649;28;20056;-68
2021/06/24 20:56:29;;;;;;;2.30;1.92;;;16.20;99.90;;;;;;8371983;28;20567;-68
2021/06/24 21:00:29;;;;;;;3.70;2.00;;;16.10;99.90;;;;;;8373147;28;20115;-68
2021/06/24 21:04:30;;;;;;;3.40;2.08;;;16.00;99.90;;;;;;8374206;28;20040;-68
2021/06/24 21:08:33;;;;;;;2.92;2.00;;;16.10;99.90;;;;;;8391123;28;20032;-68
2021/06/24 21:12:35;;;;;;;3.35;2.25;;;16.20;99.90;;;;;;8392025;28;20024;-68
2021/06/24 21:16:35;;;;;;;3.67;2.20;;;16.20;99.90;;;;;;8373744;28;20024;-68
2021/06/24 21:20:36;;;;;;;2.95;1.55;;;16.20;99.90;;;;;;8391355;28;20093;-68